sensor_id;sensor_type;location;lat;lon;timestamp;P1;durP1;ratioP1;P2;durP2;ratioP2
56161;SDS011;42045;52.986;6.014;2023-05-10T00:00:41;16.33;;;14.75;;
56161;SDS011;42045;52.986;6.014;2023-05-10T00:03:07;17.38;;;15.55;;
56161;SDS011;42045;52.986;6.014;2023-05-10T00:05:32;14.15;;;12.65;;
56161;SDS011;42045;52.986;6.014;2023-05-10T00:07:58;14.13;;;12.77;;
56161;SDS011;42045;52.986;6.014;2023-05-10T00:10:24;12.70;;;11.38;;
56161;SDS011;42045;52.986;6.014;2023-05-10T00:12:50;12.13;;;10.90;;
56161;SDS011;42045;52.986;6.014;2023-05-10T00:15:15;12.10;;;10.98;;
56161;SDS011;42045;52.986;6.014;2023-05-10T00:17:41;12.18;;;10.98;;
56161;SDS011;42045;52.986;6.014;2023-05-10T00:20:07;12.85;;;11.65;;
56161;SDS011;42045;52.986;6.014;2023-05-10T00:22:33;13.65;;;12.30;;
56161;SDS011;42045;52.986;6.014;2023-05-10T00:24:58;13.00;;;11.73;;
56161;SDS011;42045;52.986;6.014;2023-05-10T00:27:24;12.63;;;11.43;;
56161;SDS011;42045;52.986;6.014;2023-05-10T00:29:50;12.80;;;11.30;;
56161;SDS011;42045;52.986;6.014;2023-05-10T00:32:15;12.73;;;11.45;;
56161;SDS011;42045;52.986;6.014;2023-05-10T00:34:41;14.25;;;12.85;;
56161;SDS011;42045;52.986;6.014;2023-05-10T00:37:07;13.68;;;12.27;;
56161;SDS011;42045;52.986;6.014;2023-05-10T00:39:33;13.52;;;12.18;;
56161;SDS011;42045;52.986;6.014;2023-05-10T00:41:58;15.13;;;13.70;;
56161;SDS011;42045;52.986;6.014;2023-05-10T00:44:25;16.38;;;14.68;;
56161;SDS011;42045;52.986;6.014;2023-05-10T00:46:50;14.50;;;12.82;;
56161;SDS011;42045;52.986;6.014;2023-05-10T00:49:17;17.95;;;15.30;;
56161;SDS011;42045;52.986;6.014;2023-05-10T00:51:43;17.15;;;15.40;;
56161;SDS011;42045;52.986;6.014;2023-05-10T00:54:14;16.80;;;15.07;;
56161;SDS011;42045;52.986;6.014;2023-05-10T00:56:40;17.33;;;15.23;;
56161;SDS011;42045;52.986;6.014;2023-05-10T00:59:07;20.60;;;17.35;;
56161;SDS011;42045;52.986;6.014;2023-05-10T01:01:34;22.08;;;17.77;;
56161;SDS011;42045;52.986;6.014;2023-05-10T01:04:01;22.05;;;18.10;;
56161;SDS011;42045;52.986;6.014;2023-05-10T01:06:28;20.90;;;17.58;;
56161;SDS011;42045;52.986;6.014;2023-05-10T01:08:53;19.08;;;17.10;;
56161;SDS011;42045;52.986;6.014;2023-05-10T01:11:19;21.35;;;17.15;;
56161;SDS011;42045;52.986;6.014;2023-05-10T01:13:46;21.85;;;17.58;;
56161;SDS011;42045;52.986;6.014;2023-05-10T01:16:18;18.00;;;16.13;;
56161;SDS011;42045;52.986;6.014;2023-05-10T01:18:44;19.77;;;17.60;;
56161;SDS011;42045;52.986;6.014;2023-05-10T01:26:39;18.02;;;15.00;;
56161;SDS011;42045;52.986;6.014;2023-05-10T01:32:25;18.90;;;14.23;;
56161;SDS011;42045;52.986;6.014;2023-05-10T01:37:45;15.68;;;13.88;;
56161;SDS011;42045;52.986;6.014;2023-05-10T01:43:07;15.52;;;13.60;;
56161;SDS011;42045;52.986;6.014;2023-05-10T01:45:47;20.00;;;13.40;;
56161;SDS011;42045;52.986;6.014;2023-05-10T01:48:22;21.38;;;14.40;;
56161;SDS011;42045;52.986;6.014;2023-05-10T01:50:52;19.90;;;14.45;;
56161;SDS011;42045;52.986;6.014;2023-05-10T01:53:18;20.05;;;14.38;;
56161;SDS011;42045;52.986;6.014;2023-05-10T01:55:46;16.92;;;13.20;;
56161;SDS011;42045;52.986;6.014;2023-05-10T01:58:15;18.70;;;14.07;;
56161;SDS011;42045;52.986;6.014;2023-05-10T02:00:45;16.13;;;13.88;;
56161;SDS011;42045;52.986;6.014;2023-05-10T02:03:13;18.63;;;13.38;;
56161;SDS011;42045;52.986;6.014;2023-05-10T02:05:41;17.25;;;13.73;;
56161;SDS011;42045;52.986;6.014;2023-05-10T02:08:10;17.02;;;13.43;;
56161;SDS011;42045;52.986;6.014;2023-05-10T02:10:37;17.75;;;13.45;;
56161;SDS011;42045;52.986;6.014;2023-05-10T02:13:05;15.43;;;13.02;;
56161;SDS011;42045;52.986;6.014;2023-05-10T02:15:32;15.10;;;11.82;;
56161;SDS011;42045;52.986;6.014;2023-05-10T02:18:02;14.27;;;11.88;;
56161;SDS011;42045;52.986;6.014;2023-05-10T02:20:29;16.83;;;12.63;;
56161;SDS011;42045;52.986;6.014;2023-05-10T02:22:57;13.77;;;12.23;;
56161;SDS011;42045;52.986;6.014;2023-05-10T02:25:23;13.07;;;11.65;;
56161;SDS011;42045;52.986;6.014;2023-05-10T02:27:51;13.38;;;11.82;;
56161;SDS011;42045;52.986;6.014;2023-05-10T02:30:20;13.27;;;11.80;;
56161;SDS011;42045;52.986;6.014;2023-05-10T02:32:47;13.35;;;11.93;;
56161;SDS011;42045;52.986;6.014;2023-05-10T02:35:14;13.60;;;12.20;;
56161;SDS011;42045;52.986;6.014;2023-05-10T02:37:41;13.30;;;11.93;;
56161;SDS011;42045;52.986;6.014;2023-05-10T02:40:07;12.60;;;11.38;;
56161;SDS011;42045;52.986;6.014;2023-05-10T02:42:35;11.68;;;10.48;;
56161;SDS011;42045;52.986;6.014;2023-05-10T02:45:04;12.95;;;11.23;;
56161;SDS011;42045;52.986;6.014;2023-05-10T02:47:33;12.43;;;11.02;;
56161;SDS011;42045;52.986;6.014;2023-05-10T02:49:59;11.90;;;10.45;;
56161;SDS011;42045;52.986;6.014;2023-05-10T02:52:26;11.38;;;10.38;;
56161;SDS011;42045;52.986;6.014;2023-05-10T02:54:55;12.35;;;11.07;;
56161;SDS011;42045;52.986;6.014;2023-05-10T02:57:28;11.85;;;10.65;;
56161;SDS011;42045;52.986;6.014;2023-05-10T03:00:00;10.98;;;9.98;;
56161;SDS011;42045;52.986;6.014;2023-05-10T03:02:28;11.43;;;10.32;;
56161;SDS011;42045;52.986;6.014;2023-05-10T03:04:56;11.52;;;10.52;;
56161;SDS011;42045;52.986;6.014;2023-05-10T03:07:21;11.50;;;9.88;;
56161;SDS011;42045;52.986;6.014;2023-05-10T03:09:48;12.95;;;11.75;;
56161;SDS011;42045;52.986;6.014;2023-05-10T03:12:16;12.90;;;11.70;;
56161;SDS011;42045;52.986;6.014;2023-05-10T03:20:31;12.25;;;11.18;;
56161;SDS011;42045;52.986;6.014;2023-05-10T03:23:02;13.82;;;12.63;;
56161;SDS011;42045;52.986;6.014;2023-05-10T03:25:33;13.05;;;11.85;;
56161;SDS011;42045;52.986;6.014;2023-05-10T03:28:00;14.05;;;12.68;;
56161;SDS011;42045;52.986;6.014;2023-05-10T03:30:26;13.60;;;12.30;;
56161;SDS011;42045;52.986;6.014;2023-05-10T03:32:53;13.70;;;12.40;;
56161;SDS011;42045;52.986;6.014;2023-05-10T03:35:19;13.90;;;12.60;;
56161;SDS011;42045;52.986;6.014;2023-05-10T03:37:44;14.07;;;12.88;;
56161;SDS011;42045;52.986;6.014;2023-05-10T03:40:10;12.48;;;11.40;;
56161;SDS011;42045;52.986;6.014;2023-05-10T03:42:36;12.73;;;11.70;;
56161;SDS011;42045;52.986;6.014;2023-05-10T03:45:02;13.15;;;12.02;;
56161;SDS011;42045;52.986;6.014;2023-05-10T03:47:28;13.50;;;12.38;;
56161;SDS011;42045;52.986;6.014;2023-05-10T03:49:54;13.02;;;11.73;;
56161;SDS011;42045;52.986;6.014;2023-05-10T03:52:20;12.38;;;11.10;;
56161;SDS011;42045;52.986;6.014;2023-05-10T03:54:46;11.75;;;10.65;;
56161;SDS011;42045;52.986;6.014;2023-05-10T03:57:11;11.90;;;10.80;;
56161;SDS011;42045;52.986;6.014;2023-05-10T03:59:37;10.02;;;9.23;;
56161;SDS011;42045;52.986;6.014;2023-05-10T04:02:03;9.68;;;8.75;;
56161;SDS011;42045;52.986;6.014;2023-05-10T04:04:28;10.70;;;9.88;;
56161;SDS011;42045;52.986;6.014;2023-05-10T04:06:54;11.02;;;10.02;;
56161;SDS011;42045;52.986;6.014;2023-05-10T04:09:20;12.57;;;11.52;;
56161;SDS011;42045;52.986;6.014;2023-05-10T04:11:45;11.15;;;9.60;;
56161;SDS011;42045;52.986;6.014;2023-05-10T04:14:11;11.38;;;10.38;;
56161;SDS011;42045;52.986;6.014;2023-05-10T04:16:37;10.65;;;9.73;;
56161;SDS011;42045;52.986;6.014;2023-05-10T04:19:02;11.23;;;10.13;;
56161;SDS011;42045;52.986;6.014;2023-05-10T04:21:28;12.07;;;10.98;;
56161;SDS011;42045;52.986;6.014;2023-05-10T04:23:54;11.43;;;10.43;;
56161;SDS011;42045;52.986;6.014;2023-05-10T04:26:20;11.50;;;10.45;;
56161;SDS011;42045;52.986;6.014;2023-05-10T04:28:45;12.13;;;11.00;;
56161;SDS011;42045;52.986;6.014;2023-05-10T04:31:11;10.98;;;10.07;;
56161;SDS011;42045;52.986;6.014;2023-05-10T04:33:37;11.13;;;10.20;;
56161;SDS011;42045;52.986;6.014;2023-05-10T04:36:03;10.48;;;9.63;;
56161;SDS011;42045;52.986;6.014;2023-05-10T04:38:29;10.00;;;9.10;;
56161;SDS011;42045;52.986;6.014;2023-05-10T04:41:08;9.15;;;8.38;;
56161;SDS011;42045;52.986;6.014;2023-05-10T04:43:36;10.07;;;9.10;;
56161;SDS011;42045;52.986;6.014;2023-05-10T04:46:02;10.55;;;9.13;;
56161;SDS011;42045;52.986;6.014;2023-05-10T04:48:28;9.02;;;8.25;;
56161;SDS011;42045;52.986;6.014;2023-05-10T04:50:54;8.93;;;8.02;;
56161;SDS011;42045;52.986;6.014;2023-05-10T04:53:19;12.20;;;8.35;;
56161;SDS011;42045;52.986;6.014;2023-05-10T04:55:45;9.35;;;8.55;;
56161;SDS011;42045;52.986;6.014;2023-05-10T04:58:11;8.18;;;7.45;;
56161;SDS011;42045;52.986;6.014;2023-05-10T05:00:37;9.55;;;8.50;;
56161;SDS011;42045;52.986;6.014;2023-05-10T05:03:03;7.28;;;6.65;;
56161;SDS011;42045;52.986;6.014;2023-05-10T05:05:30;6.82;;;6.22;;
56161;SDS011;42045;52.986;6.014;2023-05-10T05:07:55;7.10;;;5.85;;
56161;SDS011;42045;52.986;6.014;2023-05-10T05:10:21;8.70;;;7.20;;
56161;SDS011;42045;52.986;6.014;2023-05-10T05:12:47;8.40;;;7.70;;
56161;SDS011;42045;52.986;6.014;2023-05-10T05:15:12;8.38;;;6.80;;
56161;SDS011;42045;52.986;6.014;2023-05-10T05:17:40;8.52;;;7.63;;
56161;SDS011;42045;52.986;6.014;2023-05-10T05:20:06;7.63;;;6.82;;
56161;SDS011;42045;52.986;6.014;2023-05-10T05:22:32;7.72;;;7.00;;
56161;SDS011;42045;52.986;6.014;2023-05-10T05:24:57;8.27;;;7.53;;
56161;SDS011;42045;52.986;6.014;2023-05-10T05:27:23;8.27;;;7.55;;
56161;SDS011;42045;52.986;6.014;2023-05-10T05:29:54;7.93;;;7.22;;
56161;SDS011;42045;52.986;6.014;2023-05-10T05:32:20;7.63;;;6.88;;
56161;SDS011;42045;52.986;6.014;2023-05-10T05:34:47;6.53;;;5.93;;
56161;SDS011;42045;52.986;6.014;2023-05-10T05:37:16;7.82;;;6.68;;
56161;SDS011;42045;52.986;6.014;2023-05-10T05:39:43;6.95;;;6.32;;
56161;SDS011;42045;52.986;6.014;2023-05-10T05:42:09;7.28;;;6.65;;
56161;SDS011;42045;52.986;6.014;2023-05-10T05:44:35;8.48;;;7.68;;
56161;SDS011;42045;52.986;6.014;2023-05-10T05:47:01;8.50;;;7.68;;
56161;SDS011;42045;52.986;6.014;2023-05-10T05:49:27;8.23;;;7.03;;
56161;SDS011;42045;52.986;6.014;2023-05-10T05:51:53;8.13;;;6.60;;
56161;SDS011;42045;52.986;6.014;2023-05-10T05:54:18;9.70;;;7.30;;
56161;SDS011;42045;52.986;6.014;2023-05-10T05:56:44;9.45;;;8.40;;
56161;SDS011;42045;52.986;6.014;2023-05-10T05:59:10;10.50;;;9.35;;
56161;SDS011;42045;52.986;6.014;2023-05-10T06:01:36;9.88;;;8.48;;
56161;SDS011;42045;52.986;6.014;2023-05-10T06:04:01;10.27;;;7.75;;
56161;SDS011;42045;52.986;6.014;2023-05-10T06:06:27;8.45;;;7.63;;
56161;SDS011;42045;52.986;6.014;2023-05-10T06:08:53;9.70;;;8.10;;
56161;SDS011;42045;52.986;6.014;2023-05-10T06:11:19;10.38;;;8.40;;
56161;SDS011;42045;52.986;6.014;2023-05-10T06:13:46;9.30;;;8.38;;
56161;SDS011;42045;52.986;6.014;2023-05-10T06:16:12;9.63;;;8.48;;
56161;SDS011;42045;52.986;6.014;2023-05-10T06:18:38;8.93;;;8.02;;
56161;SDS011;42045;52.986;6.014;2023-05-10T06:21:04;9.13;;;8.07;;
56161;SDS011;42045;52.986;6.014;2023-05-10T06:23:30;8.15;;;7.28;;
56161;SDS011;42045;52.986;6.014;2023-05-10T06:25:56;10.63;;;8.57;;
56161;SDS011;42045;52.986;6.014;2023-05-10T06:28:21;9.27;;;8.27;;
56161;SDS011;42045;52.986;6.014;2023-05-10T06:30:47;9.02;;;7.90;;
56161;SDS011;42045;52.986;6.014;2023-05-10T06:33:13;9.30;;;8.30;;
56161;SDS011;42045;52.986;6.014;2023-05-10T06:35:38;8.90;;;8.00;;
56161;SDS011;42045;52.986;6.014;2023-05-10T06:38:04;8.70;;;7.80;;
56161;SDS011;42045;52.986;6.014;2023-05-10T06:40:30;12.35;;;9.10;;
56161;SDS011;42045;52.986;6.014;2023-05-10T06:42:56;9.27;;;8.23;;
56161;SDS011;42045;52.986;6.014;2023-05-10T06:45:22;9.10;;;8.20;;
56161;SDS011;42045;52.986;6.014;2023-05-10T06:47:47;9.43;;;8.10;;
56161;SDS011;42045;52.986;6.014;2023-05-10T06:50:13;9.80;;;8.80;;
56161;SDS011;42045;52.986;6.014;2023-05-10T06:52:38;8.55;;;7.32;;
56161;SDS011;42045;52.986;6.014;2023-05-10T06:55:04;9.88;;;7.28;;
56161;SDS011;42045;52.986;6.014;2023-05-10T06:57:31;9.40;;;7.25;;
56161;SDS011;42045;52.986;6.014;2023-05-10T06:59:57;7.10;;;6.40;;
56161;SDS011;42045;52.986;6.014;2023-05-10T07:02:23;6.57;;;5.88;;
56161;SDS011;42045;52.986;6.014;2023-05-10T07:04:49;6.28;;;5.13;;
56161;SDS011;42045;52.986;6.014;2023-05-10T07:07:16;6.72;;;5.55;;
56161;SDS011;42045;52.986;6.014;2023-05-10T07:09:42;6.18;;;5.57;;
56161;SDS011;42045;52.986;6.014;2023-05-10T07:12:08;7.57;;;5.43;;
56161;SDS011;42045;52.986;6.014;2023-05-10T07:14:33;5.47;;;4.75;;
56161;SDS011;42045;52.986;6.014;2023-05-10T07:16:59;6.32;;;4.47;;
56161;SDS011;42045;52.986;6.014;2023-05-10T07:19:25;5.15;;;4.65;;
56161;SDS011;42045;52.986;6.014;2023-05-10T07:21:50;4.35;;;3.95;;
56161;SDS011;42045;52.986;6.014;2023-05-10T07:24:16;4.63;;;4.22;;
56161;SDS011;42045;52.986;6.014;2023-05-10T07:26:42;4.90;;;4.40;;
56161;SDS011;42045;52.986;6.014;2023-05-10T07:29:08;4.97;;;4.03;;
56161;SDS011;42045;52.986;6.014;2023-05-10T07:31:34;7.47;;;3.90;;
56161;SDS011;42045;52.986;6.014;2023-05-10T07:33:59;5.45;;;3.80;;
56161;SDS011;42045;52.986;6.014;2023-05-10T07:36:25;5.28;;;3.80;;
56161;SDS011;42045;52.986;6.014;2023-05-10T07:38:51;4.25;;;3.85;;
56161;SDS011;42045;52.986;6.014;2023-05-10T07:41:16;4.78;;;3.83;;
56161;SDS011;42045;52.986;6.014;2023-05-10T07:43:42;4.90;;;3.75;;
56161;SDS011;42045;52.986;6.014;2023-05-10T07:46:08;4.30;;;3.80;;
56161;SDS011;42045;52.986;6.014;2023-05-10T07:48:36;5.38;;;4.00;;
56161;SDS011;42045;52.986;6.014;2023-05-10T07:51:02;3.75;;;3.40;;
56161;SDS011;42045;52.986;6.014;2023-05-10T07:53:27;4.30;;;3.63;;
56161;SDS011;42045;52.986;6.014;2023-05-10T07:55:54;6.43;;;4.20;;
56161;SDS011;42045;52.986;6.014;2023-05-10T07:58:23;6.47;;;3.83;;
56161;SDS011;42045;52.986;6.014;2023-05-10T08:00:49;4.85;;;4.13;;
56161;SDS011;42045;52.986;6.014;2023-05-10T08:03:15;4.13;;;3.65;;
56161;SDS011;42045;52.986;6.014;2023-05-10T08:05:40;4.35;;;3.95;;
56161;SDS011;42045;52.986;6.014;2023-05-10T08:08:06;5.93;;;4.20;;
56161;SDS011;42045;52.986;6.014;2023-05-10T08:10:32;4.97;;;4.43;;
56161;SDS011;42045;52.986;6.014;2023-05-10T08:12:58;4.93;;;4.07;;
56161;SDS011;42045;52.986;6.014;2023-05-10T08:15:24;5.38;;;4.25;;
56161;SDS011;42045;52.986;6.014;2023-05-10T08:17:51;5.07;;;4.18;;
56161;SDS011;42045;52.986;6.014;2023-05-10T08:20:17;4.70;;;4.30;;
56161;SDS011;42045;52.986;6.014;2023-05-10T08:22:44;5.30;;;4.60;;
56161;SDS011;42045;52.986;6.014;2023-05-10T08:25:11;4.43;;;4.03;;
56161;SDS011;42045;52.986;6.014;2023-05-10T08:27:36;4.47;;;3.85;;
56161;SDS011;42045;52.986;6.014;2023-05-10T08:30:02;4.57;;;3.92;;
56161;SDS011;42045;52.986;6.014;2023-05-10T08:32:28;6.47;;;4.43;;
56161;SDS011;42045;52.986;6.014;2023-05-10T08:34:54;4.90;;;4.50;;
56161;SDS011;42045;52.986;6.014;2023-05-10T08:37:21;4.90;;;4.50;;
56161;SDS011;42045;52.986;6.014;2023-05-10T08:39:48;4.65;;;3.85;;
56161;SDS011;42045;52.986;6.014;2023-05-10T08:42:13;4.80;;;4.28;;
56161;SDS011;42045;52.986;6.014;2023-05-10T08:44:45;5.03;;;4.20;;
56161;SDS011;42045;52.986;6.014;2023-05-10T08:47:13;4.63;;;4.22;;
56161;SDS011;42045;52.986;6.014;2023-05-10T08:49:43;4.95;;;4.10;;
56161;SDS011;42045;52.986;6.014;2023-05-10T08:52:13;5.70;;;4.18;;
56161;SDS011;42045;52.986;6.014;2023-05-10T08:54:41;4.63;;;4.13;;
56161;SDS011;42045;52.986;6.014;2023-05-10T08:57:07;5.35;;;4.72;;
56161;SDS011;42045;52.986;6.014;2023-05-10T08:59:33;5.50;;;4.95;;
56161;SDS011;42045;52.986;6.014;2023-05-10T09:01:58;6.25;;;5.00;;
56161;SDS011;42045;52.986;6.014;2023-05-10T09:04:24;6.22;;;5.63;;
56161;SDS011;42045;52.986;6.014;2023-05-10T09:06:51;5.53;;;4.97;;
56161;SDS011;42045;52.986;6.014;2023-05-10T09:09:17;7.80;;;5.32;;
56161;SDS011;42045;52.986;6.014;2023-05-10T09:11:44;6.68;;;5.63;;
56161;SDS011;42045;52.986;6.014;2023-05-10T09:14:11;6.97;;;6.28;;
56161;SDS011;42045;52.986;6.014;2023-05-10T09:16:39;5.90;;;5.32;;
56161;SDS011;42045;52.986;6.014;2023-05-10T09:19:05;6.82;;;5.47;;
56161;SDS011;42045;52.986;6.014;2023-05-10T09:21:31;8.68;;;5.50;;
56161;SDS011;42045;52.986;6.014;2023-05-10T09:24:02;6.25;;;5.00;;
56161;SDS011;42045;52.986;6.014;2023-05-10T09:26:29;6.13;;;5.53;;
56161;SDS011;42045;52.986;6.014;2023-05-10T09:28:56;7.35;;;6.35;;
56161;SDS011;42045;52.986;6.014;2023-05-10T09:31:24;6.18;;;5.45;;
56161;SDS011;42045;52.986;6.014;2023-05-10T09:34:07;6.63;;;6.03;;
56161;SDS011;42045;52.986;6.014;2023-05-10T09:36:33;6.30;;;5.70;;
56161;SDS011;42045;52.986;6.014;2023-05-10T09:38:59;6.38;;;5.78;;
56161;SDS011;42045;52.986;6.014;2023-05-10T09:41:25;7.63;;;6.32;;
56161;SDS011;42045;52.986;6.014;2023-05-10T09:43:55;6.72;;;5.95;;
56161;SDS011;42045;52.986;6.014;2023-05-10T09:46:21;6.38;;;5.60;;
56161;SDS011;42045;52.986;6.014;2023-05-10T09:48:47;8.45;;;6.00;;
56161;SDS011;42045;52.986;6.014;2023-05-10T09:51:20;5.82;;;5.22;;
56161;SDS011;42045;52.986;6.014;2023-05-10T09:53:46;6.32;;;5.72;;
56161;SDS011;42045;52.986;6.014;2023-05-10T09:56:12;7.40;;;5.60;;
56161;SDS011;42045;52.986;6.014;2023-05-10T09:58:39;6.20;;;5.53;;
56161;SDS011;42045;52.986;6.014;2023-05-10T10:01:05;6.05;;;5.47;;
56161;SDS011;42045;52.986;6.014;2023-05-10T10:03:41;7.22;;;6.18;;
56161;SDS011;42045;52.986;6.014;2023-05-10T10:06:07;7.60;;;6.15;;
56161;SDS011;42045;52.986;6.014;2023-05-10T10:08:33;6.70;;;6.00;;
56161;SDS011;42045;52.986;6.014;2023-05-10T10:10:59;7.20;;;5.88;;
56161;SDS011;42045;52.986;6.014;2023-05-10T10:13:26;6.53;;;5.72;;
56161;SDS011;42045;52.986;6.014;2023-05-10T10:15:52;7.43;;;6.20;;
56161;SDS011;42045;52.986;6.014;2023-05-10T10:18:19;6.78;;;5.15;;
56161;SDS011;42045;52.986;6.014;2023-05-10T10:20:52;5.70;;;4.90;;
56161;SDS011;42045;52.986;6.014;2023-05-10T10:23:19;6.38;;;4.85;;
56161;SDS011;42045;52.986;6.014;2023-05-10T10:25:44;6.93;;;5.15;;
56161;SDS011;42045;52.986;6.014;2023-05-10T10:31:28;4.32;;;3.92;;
56161;SDS011;42045;52.986;6.014;2023-05-10T10:34:08;6.00;;;4.43;;
56161;SDS011;42045;52.986;6.014;2023-05-10T10:36:42;5.20;;;4.70;;
56161;SDS011;42045;52.986;6.014;2023-05-10T10:39:11;4.72;;;4.32;;
56161;SDS011;42045;52.986;6.014;2023-05-10T10:41:41;5.50;;;5.00;;
56161;SDS011;42045;52.986;6.014;2023-05-10T10:52:21;6.07;;;5.47;;
56161;SDS011;42045;52.986;6.014;2023-05-10T10:54:58;7.65;;;5.78;;
56161;SDS011;42045;52.986;6.014;2023-05-10T10:57:26;8.63;;;5.50;;
56161;SDS011;42045;52.986;6.014;2023-05-10T11:02:53;6.90;;;6.20;;
56161;SDS011;42045;52.986;6.014;2023-05-10T11:10:52;14.40;;;11.60;;
56161;SDS011;42045;52.986;6.014;2023-05-10T11:13:40;16.90;;;11.95;;
56161;SDS011;42045;52.986;6.014;2023-05-10T11:21:27;17.15;;;12.57;;
56161;SDS011;42045;52.986;6.014;2023-05-10T11:23:57;13.30;;;11.82;;
56161;SDS011;42045;52.986;6.014;2023-05-10T11:26:24;15.18;;;12.77;;
56161;SDS011;42045;52.986;6.014;2023-05-10T11:28:55;12.63;;;11.32;;
56161;SDS011;42045;52.986;6.014;2023-05-10T11:31:21;12.75;;;10.88;;
56161;SDS011;42045;52.986;6.014;2023-05-10T11:36:17;13.55;;;11.80;;
56161;SDS011;42045;52.986;6.014;2023-05-10T11:38:45;12.65;;;10.27;;
56161;SDS011;42045;52.986;6.014;2023-05-10T11:41:11;12.00;;;10.77;;
56161;SDS011;42045;52.986;6.014;2023-05-10T11:43:41;13.02;;;10.90;;
56161;SDS011;42045;52.986;6.014;2023-05-10T11:46:07;12.27;;;10.98;;
56161;SDS011;42045;52.986;6.014;2023-05-10T11:48:35;13.15;;;11.52;;
56161;SDS011;42045;52.986;6.014;2023-05-10T11:51:01;13.07;;;11.77;;
56161;SDS011;42045;52.986;6.014;2023-05-10T11:53:31;15.90;;;11.90;;
56161;SDS011;42045;52.986;6.014;2023-05-10T11:56:07;13.65;;;11.50;;
56161;SDS011;42045;52.986;6.014;2023-05-10T11:58:35;12.13;;;10.82;;
56161;SDS011;42045;52.986;6.014;2023-05-10T12:01:02;12.40;;;11.20;;
56161;SDS011;42045;52.986;6.014;2023-05-10T12:03:29;11.50;;;10.25;;
56161;SDS011;42045;52.986;6.014;2023-05-10T12:05:55;13.00;;;10.82;;
56161;SDS011;42045;52.986;6.014;2023-05-10T12:08:22;12.15;;;10.85;;
56161;SDS011;42045;52.986;6.014;2023-05-10T12:10:52;12.63;;;11.27;;
56161;SDS011;42045;52.986;6.014;2023-05-10T12:13:28;13.30;;;11.10;;
56161;SDS011;42045;52.986;6.014;2023-05-10T12:15:56;11.82;;;10.70;;
56161;SDS011;42045;52.986;6.014;2023-05-10T12:18:23;11.15;;;10.05;;
56161;SDS011;42045;52.986;6.014;2023-05-10T12:20:53;13.02;;;11.38;;
56161;SDS011;42045;52.986;6.014;2023-05-10T12:23:19;12.23;;;10.93;;
56161;SDS011;42045;52.986;6.014;2023-05-10T12:25:45;12.27;;;10.88;;
56161;SDS011;42045;52.986;6.014;2023-05-10T12:28:11;13.43;;;11.38;;
56161;SDS011;42045;52.986;6.014;2023-05-10T12:30:37;12.93;;;11.63;;
56161;SDS011;42045;52.986;6.014;2023-05-10T12:33:09;12.55;;;11.20;;
56161;SDS011;42045;52.986;6.014;2023-05-10T12:35:43;13.35;;;11.85;;
56161;SDS011;42045;52.986;6.014;2023-05-10T12:41:08;14.70;;;11.98;;
56161;SDS011;42045;52.986;6.014;2023-05-10T12:43:35;13.02;;;11.75;;
56161;SDS011;42045;52.986;6.014;2023-05-10T12:46:08;14.20;;;12.80;;
56161;SDS011;42045;52.986;6.014;2023-05-10T12:48:35;12.30;;;11.18;;
56161;SDS011;42045;52.986;6.014;2023-05-10T12:51:02;13.32;;;12.02;;
56161;SDS011;42045;52.986;6.014;2023-05-10T12:53:28;13.50;;;12.10;;
56161;SDS011;42045;52.986;6.014;2023-05-10T12:55:54;14.32;;;12.52;;
56161;SDS011;42045;52.986;6.014;2023-05-10T12:58:20;12.50;;;11.30;;
56161;SDS011;42045;52.986;6.014;2023-05-10T13:00:45;12.32;;;11.05;;
56161;SDS011;42045;52.986;6.014;2023-05-10T13:03:11;11.82;;;10.68;;
56161;SDS011;42045;52.986;6.014;2023-05-10T13:05:37;12.00;;;10.88;;
56161;SDS011;42045;52.986;6.014;2023-05-10T13:08:03;11.55;;;10.43;;
56161;SDS011;42045;52.986;6.014;2023-05-10T13:10:30;11.30;;;10.07;;
56161;SDS011;42045;52.986;6.014;2023-05-10T13:12:57;9.57;;;8.68;;
56161;SDS011;42045;52.986;6.014;2023-05-10T13:15:24;9.95;;;9.05;;
56161;SDS011;42045;52.986;6.014;2023-05-10T13:17:50;8.75;;;7.88;;
56161;SDS011;42045;52.986;6.014;2023-05-10T13:20:16;9.35;;;8.40;;
56161;SDS011;42045;52.986;6.014;2023-05-10T13:22:42;8.80;;;7.15;;
56161;SDS011;42045;52.986;6.014;2023-05-10T13:25:09;8.52;;;7.70;;
56161;SDS011;42045;52.986;6.014;2023-05-10T13:27:35;7.68;;;6.97;;
56161;SDS011;42045;52.986;6.014;2023-05-10T13:30:02;7.63;;;6.93;;
56161;SDS011;42045;52.986;6.014;2023-05-10T13:32:29;7.85;;;7.07;;
56161;SDS011;42045;52.986;6.014;2023-05-10T13:34:55;6.63;;;5.97;;
56161;SDS011;42045;52.986;6.014;2023-05-10T13:37:21;7.30;;;6.32;;
56161;SDS011;42045;52.986;6.014;2023-05-10T13:39:47;7.60;;;6.10;;
56161;SDS011;42045;52.986;6.014;2023-05-10T13:42:13;6.97;;;6.05;;
56161;SDS011;42045;52.986;6.014;2023-05-10T13:44:39;8.13;;;7.05;;
56161;SDS011;42045;52.986;6.014;2023-05-10T13:47:05;8.55;;;7.22;;
56161;SDS011;42045;52.986;6.014;2023-05-10T13:49:31;7.60;;;6.85;;
56161;SDS011;42045;52.986;6.014;2023-05-10T13:51:57;9.27;;;7.18;;
56161;SDS011;42045;52.986;6.014;2023-05-10T13:54:23;10.18;;;9.10;;
56161;SDS011;42045;52.986;6.014;2023-05-10T13:56:49;8.18;;;7.38;;
56161;SDS011;42045;52.986;6.014;2023-05-10T13:59:14;8.25;;;7.40;;
56161;SDS011;42045;52.986;6.014;2023-05-10T14:01:40;7.60;;;6.82;;
56161;SDS011;42045;52.986;6.014;2023-05-10T14:04:06;7.30;;;6.55;;
56161;SDS011;42045;52.986;6.014;2023-05-10T14:06:35;10.25;;;6.15;;
56161;SDS011;42045;52.986;6.014;2023-05-10T14:09:01;6.97;;;6.28;;
56161;SDS011;42045;52.986;6.014;2023-05-10T14:11:30;8.05;;;7.25;;
56161;SDS011;42045;52.986;6.014;2023-05-10T14:13:55;8.02;;;6.25;;
56161;SDS011;42045;52.986;6.014;2023-05-10T14:16:22;9.10;;;7.18;;
56161;SDS011;42045;52.986;6.014;2023-05-10T14:18:47;7.75;;;7.00;;
56161;SDS011;42045;52.986;6.014;2023-05-10T14:21:13;8.57;;;7.65;;
56161;SDS011;42045;52.986;6.014;2023-05-10T14:23:39;8.70;;;6.95;;
56161;SDS011;42045;52.986;6.014;2023-05-10T14:26:04;7.78;;;7.00;;
56161;SDS011;42045;52.986;6.014;2023-05-10T14:28:30;8.32;;;6.97;;
56161;SDS011;42045;52.986;6.014;2023-05-10T14:30:56;9.20;;;7.05;;
56161;SDS011;42045;52.986;6.014;2023-05-10T14:33:22;6.55;;;5.85;;
56161;SDS011;42045;52.986;6.014;2023-05-10T14:35:47;8.20;;;6.50;;
56161;SDS011;42045;52.986;6.014;2023-05-10T14:38:14;7.50;;;6.28;;
56161;SDS011;42045;52.986;6.014;2023-05-10T14:40:39;9.07;;;6.65;;
56161;SDS011;42045;52.986;6.014;2023-05-10T14:43:05;10.20;;;8.85;;
56161;SDS011;42045;52.986;6.014;2023-05-10T14:45:31;12.02;;;10.82;;
56161;SDS011;42045;52.986;6.014;2023-05-10T14:47:57;11.93;;;10.68;;
56161;SDS011;42045;52.986;6.014;2023-05-10T14:50:22;12.70;;;11.50;;
56161;SDS011;42045;52.986;6.014;2023-05-10T14:52:48;11.70;;;10.60;;
56161;SDS011;42045;52.986;6.014;2023-05-10T14:55:14;14.70;;;11.80;;
56161;SDS011;42045;52.986;6.014;2023-05-10T14:57:40;13.60;;;12.23;;
56161;SDS011;42045;52.986;6.014;2023-05-10T15:00:06;13.27;;;11.60;;
56161;SDS011;42045;52.986;6.014;2023-05-10T15:02:32;13.57;;;12.18;;
56161;SDS011;42045;52.986;6.014;2023-05-10T15:04:58;13.27;;;11.85;;
56161;SDS011;42045;52.986;6.014;2023-05-10T15:07:23;13.25;;;11.05;;
56161;SDS011;42045;52.986;6.014;2023-05-10T15:09:52;13.18;;;11.15;;
56161;SDS011;42045;52.986;6.014;2023-05-10T15:12:19;11.00;;;9.90;;
56161;SDS011;42045;52.986;6.014;2023-05-10T15:14:44;9.73;;;8.73;;
56161;SDS011;42045;52.986;6.014;2023-05-10T15:17:10;9.38;;;8.48;;
56161;SDS011;42045;52.986;6.014;2023-05-10T15:19:36;11.25;;;10.13;;
56161;SDS011;42045;52.986;6.014;2023-05-10T15:22:02;12.05;;;10.90;;
56161;SDS011;42045;52.986;6.014;2023-05-10T15:24:30;12.32;;;11.13;;